sensor_id;sensor_type;location;lat;lon;timestamp;pressure;altitude;pressure_sealevel;temperature;humidity
62791;BME280;48830;53.426;10.300;2023-02-10T00:00:08;103138.53;;;3.33;100.00
62791;BME280;48830;53.426;10.300;2023-02-10T00:02:34;103135.75;;;3.30;100.00
62791;BME280;48830;53.426;10.300;2023-02-10T00:04:59;103142.63;;;3.31;100.00
62791;BME280;48830;53.426;10.300;2023-02-10T00:07:25;103142.50;;;3.29;100.00
62791;BME280;48830;53.426;10.300;2023-02-10T00:09:50;103139.81;;;3.28;100.00
62791;BME280;48830;53.426;10.300;2023-02-10T00:12:16;103141.47;;;3.27;100.00
62791;BME280;48830;53.426;10.300;2023-02-10T00:14:41;103133.09;;;3.28;100.00
62791;BME280;48830;53.426;10.300;2023-02-10T00:17:07;103129.66;;;3.28;100.00
62791;BME280;48830;53.426;10.300;2023-02-10T00:19:33;103133.59;;;3.24;100.00
62791;BME280;48830;53.426;10.300;2023-02-10T00:21:59;103124.72;;;3.29;100.00
62791;BME280;48830;53.426;10.300;2023-02-10T00:24:26;103131.31;;;3.27;100.00
62791;BME280;48830;53.426;10.300;2023-02-10T00:26:52;103123.69;;;3.27;100.00
62791;BME280;48830;53.426;10.300;2023-02-10T00:29:17;103113.50;;;3.27;100.00
62791;BME280;48830;53.426;10.300;2023-02-10T00:31:43;103116.81;;;3.26;100.00
62791;BME280;48830;53.426;10.300;2023-02-10T00:34:16;103121.41;;;3.30;100.00
62791;BME280;48830;53.426;10.300;2023-02-10T00:36:42;103120.25;;;3.27;100.00
62791;BME280;48830;53.426;10.300;2023-02-10T00:39:12;103140.59;;;3.27;100.00
62791;BME280;48830;53.426;10.300;2023-02-10T00:41:38;103152.78;;;3.31;100.00
62791;BME280;48830;53.426;10.300;2023-02-10T00:44:04;103151.41;;;3.34;100.00
62791;BME280;48830;53.426;10.300;2023-02-10T00:46:29;103144.41;;;3.32;100.00
62791;BME280;48830;53.426;10.300;2023-02-10T00:48:56;103142.63;;;3.31;100.00
62791;BME280;48830;53.426;10.300;2023-02-10T00:51:22;103153.19;;;3.35;100.00
62791;BME280;48830;53.426;10.300;2023-02-10T00:53:47;103144.00;;;3.37;100.00
62791;BME280;48830;53.426;10.300;2023-02-10T00:56:19;103144.28;;;3.40;100.00
62791;BME280;48830;53.426;10.300;2023-02-10T00:58:46;103152.41;;;3.36;100.00
62791;BME280;48830;53.426;10.300;2023-02-10T01:01:12;103151.63;;;3.37;100.00
62791;BME280;48830;53.426;10.300;2023-02-10T01:03:38;103155.72;;;3.35;100.00
62791;BME280;48830;53.426;10.300;2023-02-10T01:06:04;103157.00;;;3.30;100.00
62791;BME280;48830;53.426;10.300;2023-02-10T01:08:30;103146.31;;;3.34;100.00
62791;BME280;48830;53.426;10.300;2023-02-10T01:11:05;103155.72;;;3.35;100.00
62791;BME280;48830;53.426;10.300;2023-02-10T01:13:31;103157.88;;;3.31;100.00
62791;BME280;48830;53.426;10.300;2023-02-10T01:15:59;103147.31;;;3.36;100.00
62791;BME280;48830;53.426;10.300;2023-02-10T01:18:25;103148.22;;;3.37;100.00
62791;BME280;48830;53.426;10.300;2023-02-10T01:20:50;103150.63;;;3.35;100.00
62791;BME280;48830;53.426;10.300;2023-02-10T01:23:16;103151.00;;;3.40;100.00
62791;BME280;48830;53.426;10.300;2023-02-10T01:25:42;103151.75;;;3.39;100.00
62791;BME280;48830;53.426;10.300;2023-02-10T01:28:09;103152.41;;;3.36;100.00
62791;BME280;48830;53.426;10.300;2023-02-10T01:30:34;103146.16;;;3.43;100.00
62791;BME280;48830;53.426;10.300;2023-02-10T01:33:00;103145.16;;;3.41;100.00
62791;BME280;48830;53.426;10.300;2023-02-10T01:35:26;103138.41;;;3.41;100.00
62791;BME280;48830;53.426;10.300;2023-02-10T01:37:51;103131.28;;;3.37;100.00
62791;BME280;48830;53.426;10.300;2023-02-10T01:40:17;103130.78;;;3.41;100.00
62791;BME280;48830;53.426;10.300;2023-02-10T01:42:43;103130.78;;;3.41;100.00
62791;BME280;48830;53.426;10.300;2023-02-10T01:45:33;103131.69;;;3.42;100.00
62791;BME280;48830;53.426;10.300;2023-02-10T01:48:00;103126.47;;;3.40;100.00
62791;BME280;48830;53.426;10.300;2023-02-10T01:50:29;103132.84;;;3.46;100.00
62791;BME280;48830;53.426;10.300;2023-02-10T01:52:57;103129.91;;;3.51;100.00
62791;BME280;48830;53.426;10.300;2023-02-10T01:55:26;103136.63;;;3.51;100.00
62791;BME280;48830;53.426;10.300;2023-02-10T01:57:54;103132.44;;;3.51;100.00
62791;BME280;48830;53.426;10.300;2023-02-10T02:00:21;103135.34;;;3.56;100.00
62791;BME280;48830;53.426;10.300;2023-02-10T02:02:48;103133.56;;;3.55;100.00
62791;BME280;48830;53.426;10.300;2023-02-10T02:05:27;103137.13;;;3.57;100.00
62791;BME280;48830;53.426;10.300;2023-02-10T02:07:54;103131.38;;;3.59;100.00
62791;BME280;48830;53.426;10.300;2023-02-10T02:10:23;103132.03;;;3.57;100.00
62791;BME280;48830;53.426;10.300;2023-02-10T02:12:56;103126.56;;;3.62;100.00
62791;BME280;48830;53.426;10.300;2023-02-10T02:15:47;103122.63;;;3.66;100.00
62791;BME280;48830;53.426;10.300;2023-02-10T02:23:55;103144.75;;;3.67;100.00
62791;BME280;48830;53.426;10.300;2023-02-10T02:34:28;103135.69;;;3.71;100.00
62791;BME280;48830;53.426;10.300;2023-02-10T02:37:05;103140.06;;;3.61;100.00
62791;BME280;48830;53.426;10.300;2023-02-10T02:39:33;103135.34;;;3.66;100.00
62791;BME280;48830;53.426;10.300;2023-02-10T02:42:24;103141.06;;;3.63;100.00
62791;BME280;48830;53.426;10.300;2023-02-10T02:44:53;103142.81;;;3.64;100.00
62791;BME280;48830;53.426;10.300;2023-02-10T02:50:40;103137.53;;;3.51;100.00
62791;BME280;48830;53.426;10.300;2023-02-10T03:01:04;103139.56;;;3.55;100.00
62791;BME280;48830;53.426;10.300;2023-02-10T03:03:33;103139.41;;;3.54;100.00
62791;BME280;48830;53.426;10.300;2023-02-10T03:06:00;103143.22;;;3.49;100.00
62791;BME280;48830;53.426;10.300;2023-02-10T03:08:25;103142.47;;;3.50;100.00
62791;BME280;48830;53.426;10.300;2023-02-10T03:10:51;103140.69;;;3.49;100.00
62791;BME280;48830;53.426;10.300;2023-02-10T03:13:16;103128.75;;;3.48;100.00
62791;BME280;48830;53.426;10.300;2023-02-10T03:15:42;103122.28;;;3.41;100.00
62791;BME280;48830;53.426;10.300;2023-02-10T03:18:08;103125.72;;;3.41;100.00
62791;BME280;48830;53.426;10.300;2023-02-10T03:20:34;103119.47;;;3.38;100.00
62791;BME280;48830;53.426;10.300;2023-02-10T03:23:01;103121.50;;;3.42;100.00
62791;BME280;48830;53.426;10.300;2023-02-10T03:25:26;103118.22;;;3.33;100.00
62791;BME280;48830;53.426;10.300;2023-02-10T03:27:52;103117.22;;;3.31;100.00
62791;BME280;48830;53.426;10.300;2023-02-10T03:30:17;103120.50;;;3.30;100.00
62791;BME280;48830;53.426;10.300;2023-02-10T03:32:43;103129.16;;;3.32;100.00
62791;BME280;48830;53.426;10.300;2023-02-10T03:35:08;103134.00;;;3.29;100.00
62791;BME280;48830;53.426;10.300;2023-02-10T03:37:33;103129.66;;;3.28;100.00
62791;BME280;48830;53.426;10.300;2023-02-10T03:39:59;103135.88;;;3.31;100.00
62791;BME280;48830;53.426;10.300;2023-02-10T03:42:24;103131.81;;;3.33;100.00
62791;BME280;48830;53.426;10.300;2023-02-10T03:44:50;103132.84;;;3.35;100.00
62791;BME280;48830;53.426;10.300;2023-02-10T03:47:15;103138.41;;;3.31;100.00
62791;BME280;48830;53.426;10.300;2023-02-10T03:49:41;103141.34;;;3.36;100.00
62791;BME280;48830;53.426;10.300;2023-02-10T03:52:06;103138.31;;;3.30;100.00
62791;BME280;48830;53.426;10.300;2023-02-10T03:54:32;103151.91;;;3.30;100.00
62791;BME280;48830;53.426;10.300;2023-02-10T03:56:59;103141.34;;;3.36;100.00
62791;BME280;48830;53.426;10.300;2023-02-10T03:59:24;103155.44;;;3.32;100.00
62791;BME280;48830;53.426;10.300;2023-02-10T04:01:50;103152.28;;;3.25;100.00
62791;BME280;48830;53.426;10.300;2023-02-10T04:04:16;103151.91;;;3.30;100.00
62791;BME280;48830;53.426;10.300;2023-02-10T04:06:41;103139.47;;;3.23;100.00
62791;BME280;48830;53.426;10.300;2023-02-10T04:09:07;103139.47;;;3.23;100.00
62791;BME280;48830;53.426;10.300;2023-02-10T04:11:32;103130.81;;;3.21;100.00
62791;BME280;48830;53.426;10.300;2023-02-10T04:13:58;103136.66;;;3.20;100.00
62791;BME280;48830;53.426;10.300;2023-02-10T04:16:23;103134.75;;;3.18;100.00
62791;BME280;48830;53.426;10.300;2023-02-10T04:18:53;103138.69;;;3.14;100.00
62791;BME280;48830;53.426;10.300;2023-02-10T04:21:18;103150.91;;;3.18;100.00
62791;BME280;48830;53.426;10.300;2023-02-10T04:23:44;103159.78;;;3.13;100.00
62791;BME280;48830;53.426;10.300;2023-02-10T04:26:09;103160.78;;;3.15;100.00
62791;BME280;48830;53.426;10.300;2023-02-10T04:28:34;103153.66;;;3.11;100.00
62791;BME280;48830;53.426;10.300;2023-02-10T04:31:01;103153.66;;;3.11;100.00
62791;BME280;48830;53.426;10.300;2023-02-10T04:33:27;103163.72;;;3.09;100.00
62791;BME280;48830;53.426;10.300;2023-02-10T04:35:53;103158.63;;;3.09;100.00
62791;BME280;48830;53.426;10.300;2023-02-10T04:38:20;103167.16;;;3.10;100.00
62791;BME280;48830;53.426;10.300;2023-02-10T04:40:46;103168.91;;;3.11;100.00
62791;BME280;48830;53.426;10.300;2023-02-10T04:43:12;103179.97;;;3.11;100.00
62791;BME280;48830;53.426;10.300;2023-02-10T04:45:38;103172.50;;;3.13;100.00
62791;BME280;48830;53.426;10.300;2023-02-10T04:48:04;103177.81;;;3.16;100.00
62791;BME280;48830;53.426;10.300;2023-02-10T04:50:30;103181.78;;;3.12;100.00
62791;BME280;48830;53.426;10.300;2023-02-10T04:52:55;103182.38;;;3.10;100.00
62791;BME280;48830;53.426;10.300;2023-02-10T04:55:21;103178.19;;;3.10;100.00
62791;BME280;48830;53.426;10.300;2023-02-10T04:57:47;103177.31;;;3.10;100.00
62791;BME280;48830;53.426;10.300;2023-02-10T05:00:13;103187.75;;;3.13;100.00
62791;BME280;48830;53.426;10.300;2023-02-10T05:02:39;103190.53;;;3.16;100.00
62791;BME280;48830;53.426;10.300;2023-02-10T05:05:04;103197.66;;;3.20;100.00
62791;BME280;48830;53.426;10.300;2023-02-10T05:07:30;103199.91;;;3.17;100.00
62791;BME280;48830;53.426;10.300;2023-02-10T05:09:56;103200.19;;;3.20;100.00
62791;BME280;48830;53.426;10.300;2023-02-10T05:12:21;103197.16;;;3.24;100.00
62791;BME280;48830;53.426;10.300;2023-02-10T05:14:47;103203.38;;;3.18;100.00
62791;BME280;48830;53.426;10.300;2023-02-10T05:17:12;103201.44;;;3.15;100.00
62791;BME280;48830;53.426;10.300;2023-02-10T05:19:38;103206.94;;;3.20;100.00
62791;BME280;48830;53.426;10.300;2023-02-10T05:22:03;103198.91;;;3.25;100.00
62791;BME280;48830;53.426;10.300;2023-02-10T05:24:28;103196.38;;;3.25;100.00
62791;BME280;48830;53.426;10.300;2023-02-10T05:26:54;103197.38;;;3.27;100.00
62791;BME280;48830;53.426;10.300;2023-02-10T05:29:19;103199.44;;;3.31;100.00
62791;BME280;48830;53.426;10.300;2023-02-10T05:31:45;103206.16;;;3.31;100.00
62791;BME280;48830;53.426;10.300;2023-02-10T05:34:10;103209.22;;;3.37;100.00
62791;BME280;48830;53.426;10.300;2023-02-10T05:36:36;103216.72;;;3.56;100.00
62791;BME280;48830;53.426;10.300;2023-02-10T05:39:01;103215.97;;;3.36;100.00
62791;BME280;48830;53.426;10.300;2023-02-10T05:41:45;103210.38;;;3.40;100.00
62791;BME280;48830;53.426;10.300;2023-02-10T05:44:10;103215.19;;;3.37;100.00
62791;BME280;48830;53.426;10.300;2023-02-10T05:46:36;103210.88;;;3.36;100.00
62791;BME280;48830;53.426;10.300;2023-02-10T05:49:01;103215.47;;;3.40;100.00
62791;BME280;48830;53.426;10.300;2023-02-10T05:51:26;103213.53;;;3.48;100.00
62791;BME280;48830;53.426;10.300;2023-02-10T05:53:52;103221.66;;;3.44;100.00
62791;BME280;48830;53.426;10.300;2023-02-10T05:56:18;103210.59;;;3.64;100.00
62791;BME280;48830;53.426;10.300;2023-02-10T05:58:44;103218.50;;;3.67;100.00
62791;BME280;48830;53.426;10.300;2023-02-10T06:01:10;103226.53;;;3.51;100.00
62791;BME280;48830;53.426;10.300;2023-02-10T06:03:35;103228.69;;;3.47;100.00
62791;BME280;48830;53.426;10.300;2023-02-10T06:06:01;103222.72;;;3.56;100.00
62791;BME280;48830;53.426;10.300;2023-02-10T06:08:27;103222.22;;;3.50;100.00
62791;BME280;48830;53.426;10.300;2023-02-10T06:10:53;103221.28;;;3.50;100.00
62791;BME280;48830;53.426;10.300;2023-02-10T06:13:18;103218.25;;;3.54;100.00
62791;BME280;48830;53.426;10.300;2023-02-10T06:15:44;103219.50;;;3.69;100.00
62791;BME280;48830;53.426;10.300;2023-02-10T06:18:09;103218.50;;;3.57;100.00
62791;BME280;48830;53.426;10.300;2023-02-10T06:20:35;103216.97;;;3.59;100.00
62791;BME280;48830;53.426;10.300;2023-02-10T06:23:00;103225.63;;;3.61;100.00
62791;BME280;48830;53.426;10.300;2023-02-10T06:25:26;103230.84;;;3.62;100.00
62791;BME280;48830;53.426;10.300;2023-02-10T06:27:51;103236.81;;;3.63;100.00
62791;BME280;48830;53.426;10.300;2023-02-10T06:30:17;103236.81;;;3.63;100.00
62791;BME280;48830;53.426;10.300;2023-02-10T06:32:42;103240.25;;;3.63;100.00
62791;BME280;48830;53.426;10.300;2023-02-10T06:35:08;103251.19;;;3.73;100.00
62791;BME280;48830;53.426;10.300;2023-02-10T06:37:34;103247.75;;;3.82;100.00
62791;BME280;48830;53.426;10.300;2023-02-10T06:40:04;103251.03;;;3.71;100.00
62791;BME280;48830;53.426;10.300;2023-02-10T06:42:30;103258.66;;;3.71;100.00
62791;BME280;48830;53.426;10.300;2023-02-10T06:44:56;103258.44;;;3.68;100.00
62791;BME280;48830;53.426;10.300;2023-02-10T06:47:22;103253.06;;;3.85;100.00
62791;BME280;48830;53.426;10.300;2023-02-10T06:49:47;103261.47;;;3.94;100.00
62791;BME280;48830;53.426;10.300;2023-02-10T06:52:12;103255.13;;;3.69;100.00
62791;BME280;48830;53.426;10.300;2023-02-10T06:54:38;103256.38;;;3.74;100.00
62791;BME280;48830;53.426;10.300;2023-02-10T06:57:03;103258.94;;;3.74;100.00
62791;BME280;48830;53.426;10.300;2023-02-10T06:59:29;103270.09;;;3.76;100.00
62791;BME280;48830;53.426;10.300;2023-02-10T07:01:54;103276.63;;;3.73;100.00
62791;BME280;48830;53.426;10.300;2023-02-10T07:04:27;103275.59;;;3.71;100.00
62791;BME280;48830;53.426;10.300;2023-02-10T07:06:52;103271.16;;;3.78;100.00
62791;BME280;48830;53.426;10.300;2023-02-10T07:09:17;103290.47;;;3.76;100.00
62791;BME280;48830;53.426;10.300;2023-02-10T07:11:43;103289.19;;;3.71;100.00
62791;BME280;48830;53.426;10.300;2023-02-10T07:14:08;103287.91;;;3.76;100.00
62791;BME280;48830;53.426;10.300;2023-02-10T07:16:34;103292.28;;;3.77;100.00
62791;BME280;48830;53.426;10.300;2023-02-10T07:19:00;103282.59;;;3.73;100.00
62791;BME280;48830;53.426;10.300;2023-02-10T07:21:25;103283.59;;;3.75;100.00
62791;BME280;48830;53.426;10.300;2023-02-10T07:23:51;103286.53;;;3.69;100.00
62791;BME280;48830;53.426;10.300;2023-02-10T07:26:16;103288.94;;;3.68;100.00
62791;BME280;48830;53.426;10.300;2023-02-10T07:28:43;103295.81;;;3.69;100.00
62791;BME280;48830;53.426;10.300;2023-02-10T07:31:09;103301.41;;;3.65;100.00
62791;BME280;48830;53.426;10.300;2023-02-10T07:33:34;103300.13;;;3.60;100.00
62791;BME280;48830;53.426;10.300;2023-02-10T07:36:01;103299.75;;;3.65;100.00
62791;BME280;48830;53.426;10.300;2023-02-10T07:38:27;103304.44;;;3.71;100.00
62791;BME280;48830;53.426;10.300;2023-02-10T07:40:53;103304.22;;;3.68;100.00
62791;BME280;48830;53.426;10.300;2023-02-10T07:43:18;103304.44;;;3.71;100.00
62791;BME280;48830;53.426;10.300;2023-02-10T07:45:51;103307.78;;;3.90;100.00
62791;BME280;48830;53.426;10.300;2023-02-10T07:48:17;103304.09;;;3.77;100.00
62791;BME280;48830;53.426;10.300;2023-02-10T07:50:43;103315.91;;;3.76;100.00
62791;BME280;48830;53.426;10.300;2023-02-10T07:53:09;103316.41;;;3.92;100.00
62791;BME280;48830;53.426;10.300;2023-02-10T07:55:36;103318.97;;;3.82;100.00
62791;BME280;48830;53.426;10.300;2023-02-10T07:58:02;103315.91;;;3.76;100.00
62791;BME280;48830;53.426;10.300;2023-02-10T08:00:28;103315.78;;;3.75;100.00
62791;BME280;48830;53.426;10.300;2023-02-10T08:02:53;103323.81;;;3.79;100.00
62791;BME280;48830;53.426;10.300;2023-02-10T08:05:19;103315.16;;;3.77;100.00
62791;BME280;48830;53.426;10.300;2023-02-10T08:07:44;103314.13;;;3.85;100.00
62791;BME280;48830;53.426;10.300;2023-02-10T08:10:10;103319.38;;;3.77;100.00
62791;BME280;48830;53.426;10.300;2023-02-10T08:12:35;103315.91;;;3.86;100.00
62791;BME280;48830;53.426;10.300;2023-02-10T08:15:01;103313.34;;;4.07;100.00
62791;BME280;48830;53.426;10.300;2023-02-10T08:17:27;103326.34;;;4.10;100.00
62791;BME280;48830;53.426;10.300;2023-02-10T08:19:53;103324.56;;;3.88;100.00
62791;BME280;48830;53.426;10.300;2023-02-10T08:22:18;103323.81;;;4.00;100.00
62791;BME280;48830;53.426;10.300;2023-02-10T08:24:44;103322.53;;;4.05;100.00
62791;BME280;48830;53.426;10.300;2023-02-10T08:27:09;103328.00;;;3.99;100.00
62791;BME280;48830;53.426;10.300;2023-02-10T08:29:35;103317.06;;;4.10;100.00
62791;BME280;48830;53.426;10.300;2023-02-10T08:32:00;103317.94;;;4.11;100.00
62791;BME280;48830;53.426;10.300;2023-02-10T08:34:26;103315.41;;;4.11;100.00
62791;BME280;48830;53.426;10.300;2023-02-10T08:36:53;103319.03;;;4.35;100.00
62791;BME280;48830;53.426;10.300;2023-02-10T08:39:19;103322.63;;;4.37;100.00
62791;BME280;48830;53.426;10.300;2023-02-10T08:41:44;103334.56;;;4.38;100.00
62791;BME280;48830;53.426;10.300;2023-02-10T08:44:11;103330.91;;;4.14;100.00
62791;BME280;48830;53.426;10.300;2023-02-10T08:46:37;103330.66;;;4.21;100.00
62791;BME280;48830;53.426;10.300;2023-02-10T08:49:03;103331.53;;;4.42;100.00
62791;BME280;48830;53.426;10.300;2023-02-10T08:51:28;103329.31;;;4.46;100.00
62791;BME280;48830;53.426;10.300;2023-02-10T08:53:56;103328.44;;;4.36;100.00
62791;BME280;48830;53.426;10.300;2023-02-10T08:56:21;103334.09;;;4.32;100.00
62791;BME280;48830;53.426;10.300;2023-02-10T08:58:47;103324.53;;;4.29;100.00
62791;BME280;48830;53.426;10.300;2023-02-10T09:01:19;103318.63;;;4.40;100.00
62791;BME280;48830;53.426;10.300;2023-02-10T09:03:45;103326.06;;;4.27;100.00
62791;BME280;48830;53.426;10.300;2023-02-10T09:06:26;103324.97;;;4.56;100.00
62791;BME280;48830;53.426;10.300;2023-02-10T09:08:52;103329.09;;;4.43;100.00
62791;BME280;48830;53.426;10.300;2023-02-10T09:11:22;103326.59;;;4.65;100.00
62791;BME280;48830;53.426;10.300;2023-02-10T09:13:50;103332.88;;;4.59;100.00
62791;BME280;48830;53.426;10.300;2023-02-10T09:16:15;103329.94;;;4.64;100.00
62791;BME280;48830;53.426;10.300;2023-02-10T09:18:41;103334.19;;;4.43;100.00
62791;BME280;48830;53.426;10.300;2023-02-10T09:21:06;103336.44;;;4.51;100.00
62791;BME280;48830;53.426;10.300;2023-02-10T09:23:32;103330.56;;;4.62;100.00
62791;BME280;48830;53.426;10.300;2023-02-10T09:25:59;103333.47;;;4.66;100.00
62791;BME280;48830;53.426;10.300;2023-02-10T09:28:26;103327.28;;;4.63;100.00
62791;BME280;48830;53.426;10.300;2023-02-10T09:30:52;103341.63;;;4.62;100.00
62791;BME280;48830;53.426;10.300;2023-02-10T09:33:18;103326.88;;;4.68;100.00
62791;BME280;48830;53.426;10.300;2023-02-10T09:35:43;103339.47;;;4.57;100.00
62791;BME280;48830;53.426;10.300;2023-02-10T09:38:10;103331.44;;;4.94;100.00
62791;BME280;48830;53.426;10.300;2023-02-10T09:45:52;103338.81;;;4.80;100.00
62791;BME280;48830;53.426;10.300;2023-02-10T09:48:56;103335.16;;;4.56;100.00
62791;BME280;48830;53.426;10.300;2023-02-10T09:54:09;103342.78;;;4.66;100.00
62791;BME280;48830;53.426;10.300;2023-02-10T09:56:36;103341.78;;;4.64;100.00
62791;BME280;48830;53.426;10.300;2023-02-10T09:59:02;103342.41;;;4.61;100.00
62791;BME280;48830;53.426;10.300;2023-02-10T10:01:41;103345.84;;;4.62;100.00
62791;BME280;48830;53.426;10.300;2023-02-10T10:04:12;103348.50;;;4.73;100.00
62791;BME280;48830;53.426;10.300;2023-02-10T10:06:40;103348.38;;;4.72;100.00
62791;BME280;48830;53.426;10.300;2023-02-10T10:11:48;103354.75;;;4.67;100.00
62791;BME280;48830;53.426;10.300;2023-02-10T10:14:25;103354.72;;;4.77;100.00
62791;BME280;48830;53.426;10.300;2023-02-10T10:30:19;103352.66;;;4.83;100.00
62791;BME280;48830;53.426;10.300;2023-02-10T10:32:52;103360.13;;;5.02;100.00
62791;BME280;48830;53.426;10.300;2023-02-10T10:35:24;103363.28;;;4.99;100.00
62791;BME280;48830;53.426;10.300;2023-02-10T10:37:51;103359.72;;;5.08;100.00
62791;BME280;48830;53.426;10.300;2023-02-10T10:40:30;103354.84;;;5.11;100.00
62791;BME280;48830;53.426;10.300;2023-02-10T10:42:59;103360.19;;;5.14;100.00
62791;BME280;48830;53.426;10.300;2023-02-10T10:45:34;103356.28;;;5.07;100.00
62791;BME280;48830;53.426;10.300;2023-02-10T10:48:07;103353.63;;;5.28;100.00
62791;BME280;48830;53.426;10.300;2023-02-10T10:50:34;103363.22;;;5.20;100.00
62791;BME280;48830;53.426;10.300;2023-02-10T10:53:03;103354.03;;;5.22;100.00
62791;BME280;48830;53.426;10.300;2023-02-10T10:55:40;103353.38;;;5.24;100.00
62791;BME280;48830;53.426;10.300;2023-02-10T11:00:53;103351.41;;;5.10;100.00
62791;BME280;48830;53.426;10.300;2023-02-10T11:03:19;103354.25;;;5.25;100.00
62791;BME280;48830;53.426;10.300;2023-02-10T11:06:00;103348.69;;;5.19;100.00
62791;BME280;48830;53.426;10.300;2023-02-10T11:08:29;103349.84;;;5.44;100.00
62791;BME280;48830;53.426;10.300;2023-02-10T11:10:57;103347.75;;;5.50;100.00
62791;BME280;48830;53.426;10.300;2023-02-10T11:13:26;103345.59;;;5.67;100.00
62791;BME280;48830;53.426;10.300;2023-02-10T11:16:01;103337.41;;;5.71;100.00
62791;BME280;48830;53.426;10.300;2023-02-10T11:18:28;103344.56;;;5.87;100.00
62791;BME280;48830;53.426;10.300;2023-02-10T11:20:59;103336.44;;;6.14;100.00
62791;BME280;48830;53.426;10.300;2023-02-10T11:23:27;103327.78;;;6.24;100.00
62791;BME280;48830;53.426;10.300;2023-02-10T11:26:15;103329.84;;;7.12;100.00
62791;BME280;48830;53.426;10.300;2023-02-10T11:28:42;103321.69;;;11.18;91.44
62791;BME280;48830;53.426;10.300;2023-02-10T11:31:36;103317.00;;;9.60;90.00
62791;BME280;48830;53.426;10.300;2023-02-10T11:34:21;103317.19;;;9.35;90.79
62791;BME280;48830;53.426;10.300;2023-02-10T11:36:47;103320.81;;;9.67;91.59
62791;BME280;48830;53.426;10.300;2023-02-10T11:41:48;103310.06;;;10.02;87.37
62791;BME280;48830;53.426;10.300;2023-02-10T11:44:31;103312.44;;;11.71;82.06
62791;BME280;48830;53.426;10.300;2023-02-10T11:47:03;103294.63;;;10.32;81.55
62791;BME280;48830;53.426;10.300;2023-02-10T11:49:30;103306.81;;;12.12;76.61
62791;BME280;48830;53.426;10.300;2023-02-10T11:52:00;103296.66;;;12.51;74.48
62791;BME280;48830;53.426;10.300;2023-02-10T11:54:27;103298.13;;;12.46;71.02
62791;BME280;48830;53.426;10.300;2023-02-10T12:10:54;103283.56;;;12.83;66.86
62791;BME280;48830;53.426;10.300;2023-02-10T12:19:24;103267.91;;;12.80;66.68
62791;BME280;48830;53.426;10.300;2023-02-10T12:22:21;103266.38;;;11.26;74.11
62791;BME280;48830;53.426;10.300;2023-02-10T12:25:05;103264.56;;;10.76;78.49
62791;BME280;48830;53.426;10.300;2023-02-10T12:28:01;103259.19;;;9.67;83.60
62791;BME280;48830;53.426;10.300;2023-02-10T12:33:29;103250.97;;;9.30;85.77
62791;BME280;48830;53.426;10.300;2023-02-10T12:36:15;103237.50;;;9.04;86.95
62791;BME280;48830;53.426;10.300;2023-02-10T12:39:02;103233.63;;;8.70;90.20
62791;BME280;48830;53.426;10.300;2023-02-10T12:44:41;103227.91;;;8.60;90.82
62791;BME280;48830;53.426;10.300;2023-02-10T12:48:01;103217.94;;;8.78;91.19
62791;BME280;48830;53.426;10.300;2023-02-10T12:52:59;103217.06;;;8.78;88.82
62791;BME280;48830;53.426;10.300;2023-02-10T12:58:18;103206.88;;;8.51;90.58
62791;BME280;48830;53.426;10.300;2023-02-10T13:00:53;103207.25;;;8.44;92.09
62791;BME280;48830;53.426;10.300;2023-02-10T13:03:31;103191.72;;;8.97;90.09
62791;BME280;48830;53.426;10.300;2023-02-10T13:08:55;103191.53;;;8.66;90.05
62791;BME280;48830;53.426;10.300;2023-02-10T13:11:35;103182.91;;;8.79;90.13
62791;BME280;48830;53.426;10.300;2023-02-10T13:14:10;103178.81;;;8.67;90.11
62791;BME280;48830;53.426;10.300;2023-02-10T13:16:39;103185.72;;;8.68;90.79
62791;BME280;48830;53.426;10.300;2023-02-10T13:19:12;103186.28;;;8.78;90.27
62791;BME280;48830;53.426;10.300;2023-02-10T13:21:54;103174.34;;;9.36;87.17
62791;BME280;48830;53.426;10.300;2023-02-10T13:33:09;103181.13;;;10.88;74.42
62791;BME280;48830;53.426;10.300;2023-02-10T13:35:41;103184.09;;;10.17;77.12
62791;BME280;48830;53.426;10.300;2023-02-10T13:38:13;103183.03;;;9.67;80.33
62791;BME280;48830;53.426;10.300;2023-02-10T13:40:54;103179.84;;;9.71;80.35
62791;BME280;48830;53.426;10.300;2023-02-10T13:43:40;103174.63;;;9.70;80.93
62791;BME280;48830;53.426;10.300;2023-02-10T13:46:19;103169.66;;;10.34;78.72
62791;BME280;48830;53.426;10.300;2023-02-10T13:48:54;103173.00;;;9.87;78.13
62791;BME280;48830;53.426;10.300;2023-02-10T13:51:35;103168.84;;;9.89;80.19
62791;BME280;48830;53.426;10.300;2023-02-10T13:54:03;103171.16;;;9.10;82.70
62791;BME280;48830;53.426;10.300;2023-02-10T13:56:33;103165.94;;;9.24;83.80
62791;BME280;48830;53.426;10.300;2023-02-10T13:59:02;103157.19;;;8.77;85.61
62791;BME280;48830;53.426;10.300;2023-02-10T14:01:48;103156.47;;;8.80;85.59
62791;BME280;48830;53.426;10.300;2023-02-10T14:06:44;103145.22;;;8.50;86.80
62791;BME280;48830;53.426;10.300;2023-02-10T14:09:34;103148.72;;;8.24;88.00
62791;BME280;48830;53.426;10.300;2023-02-10T14:12:04;103140.88;;;8.07;88.35
62791;BME280;48830;53.426;10.300;2023-02-10T14:14:31;103140.03;;;8.22;88.66
62791;BME280;48830;53.426;10.300;2023-02-10T14:17:18;103133.06;;;8.06;88.27
62791;BME280;48830;53.426;10.300;2023-02-10T14:19:51;103133.06;;;8.06;89.51
62791;BME280;48830;53.426;10.300;2023-02-10T14:24:57;103136.41;;;8.05;89.31
62791;BME280;48830;53.426;10.300;2023-02-10T14:27:25;103133.34;;;8.24;89.30
62791;BME280;48830;53.426;10.300;2023-02-10T14:30:05;103143.94;;;8.02;89.48